sensor_id;sensor_type;location;lat;lon;timestamp;P1;durP1;ratioP1;P2;durP2;ratioP2
23181;SDS011;11759;51.282;6.642;2023-04-15T00:01:50;17.20;;;6.90;;
23181;SDS011;11759;51.282;6.642;2023-04-15T00:04:17;47.65;;;9.43;;
23181;SDS011;11759;51.282;6.642;2023-04-15T00:06:51;34.50;;;7.25;;
23181;SDS011;11759;51.282;6.642;2023-04-15T00:09:20;25.27;;;7.63;;
23181;SDS011;11759;51.282;6.642;2023-04-15T00:11:47;33.63;;;7.63;;
23181;SDS011;11759;51.282;6.642;2023-04-15T00:14:16;19.30;;;6.82;;
23181;SDS011;11759;51.282;6.642;2023-04-15T00:16:42;35.15;;;7.50;;
23181;SDS011;11759;51.282;6.642;2023-04-15T00:19:09;33.08;;;7.68;;
23181;SDS011;11759;51.282;6.642;2023-04-15T00:21:36;24.13;;;7.25;;
23181;SDS011;11759;51.282;6.642;2023-04-15T00:24:03;25.15;;;7.55;;
23181;SDS011;11759;51.282;6.642;2023-04-15T00:26:29;27.73;;;7.70;;
23181;SDS011;11759;51.282;6.642;2023-04-15T00:28:56;29.92;;;7.80;;
23181;SDS011;11759;51.282;6.642;2023-04-15T00:31:23;33.13;;;7.78;;
23181;SDS011;11759;51.282;6.642;2023-04-15T00:33:50;19.98;;;7.28;;
23181;SDS011;11759;51.282;6.642;2023-04-15T00:36:17;27.60;;;7.30;;
23181;SDS011;11759;51.282;6.642;2023-04-15T00:38:44;17.92;;;6.97;;
23181;SDS011;11759;51.282;6.642;2023-04-15T00:41:11;23.92;;;7.85;;
23181;SDS011;11759;51.282;6.642;2023-04-15T00:43:38;16.85;;;7.70;;
23181;SDS011;11759;51.282;6.642;2023-04-15T00:46:05;22.35;;;7.55;;
23181;SDS011;11759;51.282;6.642;2023-04-15T00:48:32;9.93;;;6.90;;
23181;SDS011;11759;51.282;6.642;2023-04-15T00:50:59;18.98;;;8.60;;
23181;SDS011;11759;51.282;6.642;2023-04-15T00:53:26;13.70;;;7.97;;
23181;SDS011;11759;51.282;6.642;2023-04-15T00:55:53;25.92;;;7.82;;
23181;SDS011;11759;51.282;6.642;2023-04-15T00:58:19;19.30;;;8.70;;
23181;SDS011;11759;51.282;6.642;2023-04-15T01:00:46;25.40;;;8.02;;
23181;SDS011;11759;51.282;6.642;2023-04-15T01:03:14;14.93;;;8.07;;
23181;SDS011;11759;51.282;6.642;2023-04-15T01:05:41;21.23;;;8.52;;
23181;SDS011;11759;51.282;6.642;2023-04-15T01:08:08;18.98;;;7.70;;
23181;SDS011;11759;51.282;6.642;2023-04-15T01:10:35;18.02;;;8.68;;
23181;SDS011;11759;51.282;6.642;2023-04-15T01:13:02;13.57;;;7.60;;
23181;SDS011;11759;51.282;6.642;2023-04-15T01:15:29;12.63;;;8.13;;
23181;SDS011;11759;51.282;6.642;2023-04-15T01:18:00;12.98;;;7.85;;
23181;SDS011;11759;51.282;6.642;2023-04-15T01:20:28;15.68;;;7.60;;
23181;SDS011;11759;51.282;6.642;2023-04-15T01:22:55;21.60;;;8.18;;
23181;SDS011;11759;51.282;6.642;2023-04-15T01:25:31;15.63;;;8.25;;
23181;SDS011;11759;51.282;6.642;2023-04-15T01:27:59;15.50;;;8.07;;
23181;SDS011;11759;51.282;6.642;2023-04-15T01:30:26;12.50;;;7.53;;
23181;SDS011;11759;51.282;6.642;2023-04-15T01:32:52;18.10;;;7.93;;
23181;SDS011;11759;51.282;6.642;2023-04-15T01:35:19;15.02;;;7.32;;
23181;SDS011;11759;51.282;6.642;2023-04-15T01:37:46;14.07;;;7.55;;
23181;SDS011;11759;51.282;6.642;2023-04-15T01:40:15;15.98;;;8.20;;
23181;SDS011;11759;51.282;6.642;2023-04-15T01:42:42;14.98;;;8.05;;
23181;SDS011;11759;51.282;6.642;2023-04-15T01:45:09;15.15;;;8.05;;
23181;SDS011;11759;51.282;6.642;2023-04-15T01:47:36;18.20;;;8.98;;
23181;SDS011;11759;51.282;6.642;2023-04-15T01:50:03;18.25;;;8.38;;
23181;SDS011;11759;51.282;6.642;2023-04-15T01:52:31;19.83;;;7.82;;
23181;SDS011;11759;51.282;6.642;2023-04-15T01:54:58;24.40;;;9.18;;
23181;SDS011;11759;51.282;6.642;2023-04-15T01:57:32;20.55;;;9.32;;
23181;SDS011;11759;51.282;6.642;2023-04-15T01:59:59;19.90;;;9.60;;
23181;SDS011;11759;51.282;6.642;2023-04-15T02:02:38;17.92;;;9.43;;
23181;SDS011;11759;51.282;6.642;2023-04-15T02:05:05;25.25;;;9.80;;
23181;SDS011;11759;51.282;6.642;2023-04-15T02:07:32;17.65;;;9.10;;
23181;SDS011;11759;51.282;6.642;2023-04-15T02:10:01;17.33;;;9.50;;
23181;SDS011;11759;51.282;6.642;2023-04-15T02:12:29;18.15;;;9.50;;
23181;SDS011;11759;51.282;6.642;2023-04-15T02:14:55;28.55;;;10.52;;
23181;SDS011;11759;51.282;6.642;2023-04-15T02:17:22;20.98;;;10.40;;
23181;SDS011;11759;51.282;6.642;2023-04-15T02:19:49;21.95;;;9.80;;
23181;SDS011;11759;51.282;6.642;2023-04-15T02:22:16;20.05;;;9.88;;
23181;SDS011;11759;51.282;6.642;2023-04-15T02:24:45;21.17;;;9.90;;
23181;SDS011;11759;51.282;6.642;2023-04-15T02:27:15;20.38;;;11.00;;
23181;SDS011;11759;51.282;6.642;2023-04-15T02:32:11;20.63;;;10.30;;
23181;SDS011;11759;51.282;6.642;2023-04-15T02:34:39;23.05;;;10.05;;
23181;SDS011;11759;51.282;6.642;2023-04-15T02:37:09;28.23;;;12.18;;
23181;SDS011;11759;51.282;6.642;2023-04-15T02:39:36;19.92;;;10.70;;
23181;SDS011;11759;51.282;6.642;2023-04-15T02:42:03;28.73;;;11.20;;
23181;SDS011;11759;51.282;6.642;2023-04-15T02:44:31;28.75;;;12.57;;
23181;SDS011;11759;51.282;6.642;2023-04-15T02:47:01;31.10;;;13.20;;
23181;SDS011;11759;51.282;6.642;2023-04-15T02:49:28;26.25;;;12.07;;
23181;SDS011;11759;51.282;6.642;2023-04-15T02:51:56;37.40;;;12.15;;
23181;SDS011;11759;51.282;6.642;2023-04-15T02:54:23;20.52;;;11.48;;
23181;SDS011;11759;51.282;6.642;2023-04-15T02:56:50;26.92;;;11.95;;
23181;SDS011;11759;51.282;6.642;2023-04-15T02:59:20;26.03;;;12.83;;
23181;SDS011;11759;51.282;6.642;2023-04-15T03:01:47;26.75;;;12.68;;
23181;SDS011;11759;51.282;6.642;2023-04-15T03:04:15;27.40;;;11.85;;
23181;SDS011;11759;51.282;6.642;2023-04-15T03:06:42;23.50;;;12.38;;
23181;SDS011;11759;51.282;6.642;2023-04-15T03:09:09;26.80;;;12.27;;
23181;SDS011;11759;51.282;6.642;2023-04-15T03:11:37;22.27;;;11.40;;
23181;SDS011;11759;51.282;6.642;2023-04-15T03:16:37;27.63;;;11.80;;
23181;SDS011;11759;51.282;6.642;2023-04-15T03:19:04;25.00;;;12.18;;
23181;SDS011;11759;51.282;6.642;2023-04-15T03:21:32;16.70;;;10.80;;
23181;SDS011;11759;51.282;6.642;2023-04-15T03:23:59;20.75;;;10.80;;
23181;SDS011;11759;51.282;6.642;2023-04-15T03:26:27;19.85;;;11.18;;
23181;SDS011;11759;51.282;6.642;2023-04-15T03:28:58;20.23;;;10.95;;
23181;SDS011;11759;51.282;6.642;2023-04-15T03:31:25;26.60;;;12.43;;
23181;SDS011;11759;51.282;6.642;2023-04-15T03:33:52;23.48;;;11.73;;
23181;SDS011;11759;51.282;6.642;2023-04-15T03:36:18;23.17;;;11.98;;
23181;SDS011;11759;51.282;6.642;2023-04-15T03:38:45;18.60;;;11.77;;
23181;SDS011;11759;51.282;6.642;2023-04-15T03:41:12;24.83;;;12.02;;
23181;SDS011;11759;51.282;6.642;2023-04-15T03:43:39;20.95;;;10.85;;
23181;SDS011;11759;51.282;6.642;2023-04-15T03:46:05;30.20;;;12.30;;
23181;SDS011;11759;51.282;6.642;2023-04-15T03:48:32;28.58;;;12.52;;
23181;SDS011;11759;51.282;6.642;2023-04-15T03:50:59;22.75;;;12.23;;
23181;SDS011;11759;51.282;6.642;2023-04-15T03:53:26;23.95;;;12.15;;
23181;SDS011;11759;51.282;6.642;2023-04-15T03:55:52;25.20;;;12.65;;
23181;SDS011;11759;51.282;6.642;2023-04-15T03:58:19;22.90;;;12.30;;
23181;SDS011;11759;51.282;6.642;2023-04-15T04:00:48;26.55;;;13.20;;
23181;SDS011;11759;51.282;6.642;2023-04-15T04:03:14;20.98;;;12.05;;
23181;SDS011;11759;51.282;6.642;2023-04-15T04:05:42;26.08;;;13.63;;
23181;SDS011;11759;51.282;6.642;2023-04-15T04:08:10;26.70;;;13.18;;
23181;SDS011;11759;51.282;6.642;2023-04-15T04:10:39;26.30;;;12.35;;
23181;SDS011;11759;51.282;6.642;2023-04-15T04:13:06;27.00;;;12.65;;
23181;SDS011;11759;51.282;6.642;2023-04-15T04:15:33;19.73;;;12.30;;
23181;SDS011;11759;51.282;6.642;2023-04-15T04:17:59;30.10;;;13.15;;
23181;SDS011;11759;51.282;6.642;2023-04-15T04:20:27;29.27;;;13.65;;
23181;SDS011;11759;51.282;6.642;2023-04-15T04:22:53;27.67;;;13.25;;
23181;SDS011;11759;51.282;6.642;2023-04-15T04:25:20;29.52;;;14.95;;
23181;SDS011;11759;51.282;6.642;2023-04-15T04:27:46;33.97;;;14.30;;
23181;SDS011;11759;51.282;6.642;2023-04-15T04:30:13;30.10;;;14.07;;
23181;SDS011;11759;51.282;6.642;2023-04-15T04:32:40;29.63;;;14.10;;
23181;SDS011;11759;51.282;6.642;2023-04-15T04:35:06;26.58;;;14.40;;
23181;SDS011;11759;51.282;6.642;2023-04-15T04:37:34;26.27;;;13.55;;
23181;SDS011;11759;51.282;6.642;2023-04-15T04:40:02;32.05;;;14.60;;
23181;SDS011;11759;51.282;6.642;2023-04-15T04:42:28;31.73;;;14.25;;
23181;SDS011;11759;51.282;6.642;2023-04-15T04:44:55;27.40;;;13.93;;
23181;SDS011;11759;51.282;6.642;2023-04-15T04:47:22;29.58;;;14.43;;
23181;SDS011;11759;51.282;6.642;2023-04-15T04:49:48;31.30;;;16.05;;
23181;SDS011;11759;51.282;6.642;2023-04-15T04:52:15;32.33;;;17.05;;
23181;SDS011;11759;51.282;6.642;2023-04-15T04:54:42;33.70;;;15.70;;
23181;SDS011;11759;51.282;6.642;2023-04-15T04:57:08;29.02;;;16.52;;
23181;SDS011;11759;51.282;6.642;2023-04-15T04:59:35;37.63;;;17.17;;
23181;SDS011;11759;51.282;6.642;2023-04-15T05:02:01;31.50;;;17.48;;
23181;SDS011;11759;51.282;6.642;2023-04-15T05:04:29;37.50;;;18.23;;
23181;SDS011;11759;51.282;6.642;2023-04-15T05:06:57;37.45;;;18.15;;
23181;SDS011;11759;51.282;6.642;2023-04-15T05:09:24;34.40;;;17.33;;
23181;SDS011;11759;51.282;6.642;2023-04-15T05:11:51;32.78;;;19.02;;
23181;SDS011;11759;51.282;6.642;2023-04-15T05:14:18;37.88;;;18.58;;
23181;SDS011;11759;51.282;6.642;2023-04-15T05:16:46;30.23;;;17.40;;
23181;SDS011;11759;51.282;6.642;2023-04-15T05:19:13;32.45;;;18.30;;
23181;SDS011;11759;51.282;6.642;2023-04-15T05:21:40;34.63;;;18.52;;
23181;SDS011;11759;51.282;6.642;2023-04-15T05:24:06;32.28;;;18.17;;
23181;SDS011;11759;51.282;6.642;2023-04-15T05:26:33;34.58;;;18.52;;
23181;SDS011;11759;51.282;6.642;2023-04-15T05:29:00;31.77;;;18.45;;
23181;SDS011;11759;51.282;6.642;2023-04-15T05:31:27;35.88;;;18.73;;
23181;SDS011;11759;51.282;6.642;2023-04-15T05:33:58;30.10;;;18.45;;
23181;SDS011;11759;51.282;6.642;2023-04-15T05:36:25;29.83;;;18.88;;
23181;SDS011;11759;51.282;6.642;2023-04-15T05:38:53;30.85;;;17.98;;
23181;SDS011;11759;51.282;6.642;2023-04-15T05:41:19;31.58;;;18.17;;
23181;SDS011;11759;51.282;6.642;2023-04-15T05:43:46;38.80;;;18.92;;
23181;SDS011;11759;51.282;6.642;2023-04-15T05:46:12;35.63;;;18.40;;
23181;SDS011;11759;51.282;6.642;2023-04-15T05:48:39;32.00;;;19.83;;
23181;SDS011;11759;51.282;6.642;2023-04-15T05:51:06;29.70;;;18.00;;
23181;SDS011;11759;51.282;6.642;2023-04-15T05:53:32;42.25;;;19.77;;
23181;SDS011;11759;51.282;6.642;2023-04-15T05:55:59;32.65;;;18.02;;
23181;SDS011;11759;51.282;6.642;2023-04-15T05:58:25;30.92;;;17.70;;
23181;SDS011;11759;51.282;6.642;2023-04-15T06:00:52;31.13;;;18.25;;
23181;SDS011;11759;51.282;6.642;2023-04-15T06:03:19;34.67;;;18.27;;
23181;SDS011;11759;51.282;6.642;2023-04-15T06:05:48;33.08;;;17.85;;
23181;SDS011;11759;51.282;6.642;2023-04-15T06:08:15;31.83;;;17.38;;
23181;SDS011;11759;51.282;6.642;2023-04-15T06:10:41;31.65;;;17.20;;
23181;SDS011;11759;51.282;6.642;2023-04-15T06:13:08;28.45;;;16.30;;
23181;SDS011;11759;51.282;6.642;2023-04-15T06:15:35;35.88;;;17.63;;
23181;SDS011;11759;51.282;6.642;2023-04-15T06:18:02;34.70;;;16.83;;
23181;SDS011;11759;51.282;6.642;2023-04-15T06:20:28;28.92;;;17.65;;
23181;SDS011;11759;51.282;6.642;2023-04-15T06:22:56;25.98;;;14.98;;
23181;SDS011;11759;51.282;6.642;2023-04-15T06:25:22;27.83;;;15.55;;
23181;SDS011;11759;51.282;6.642;2023-04-15T06:27:49;25.65;;;15.77;;
23181;SDS011;11759;51.282;6.642;2023-04-15T06:30:15;30.02;;;15.90;;
23181;SDS011;11759;51.282;6.642;2023-04-15T06:32:42;29.50;;;16.23;;
23181;SDS011;11759;51.282;6.642;2023-04-15T06:35:09;26.25;;;16.02;;
23181;SDS011;11759;51.282;6.642;2023-04-15T06:37:35;25.73;;;16.25;;
23181;SDS011;11759;51.282;6.642;2023-04-15T06:40:02;27.67;;;14.63;;
23181;SDS011;11759;51.282;6.642;2023-04-15T06:42:30;25.55;;;14.77;;
23181;SDS011;11759;51.282;6.642;2023-04-15T06:44:57;24.50;;;14.30;;
23181;SDS011;11759;51.282;6.642;2023-04-15T06:47:24;23.67;;;15.50;;
23181;SDS011;11759;51.282;6.642;2023-04-15T06:49:50;24.27;;;14.70;;
23181;SDS011;11759;51.282;6.642;2023-04-15T06:52:17;28.27;;;15.30;;
23181;SDS011;11759;51.282;6.642;2023-04-15T06:54:43;24.75;;;15.75;;
23181;SDS011;11759;51.282;6.642;2023-04-15T06:57:10;29.05;;;15.82;;
23181;SDS011;11759;51.282;6.642;2023-04-15T06:59:37;24.02;;;14.07;;
23181;SDS011;11759;51.282;6.642;2023-04-15T07:02:03;26.23;;;15.48;;
23181;SDS011;11759;51.282;6.642;2023-04-15T07:04:30;26.17;;;14.80;;
23181;SDS011;11759;51.282;6.642;2023-04-15T07:06:57;25.00;;;15.40;;
23181;SDS011;11759;51.282;6.642;2023-04-15T07:09:23;22.17;;;14.35;;
23181;SDS011;11759;51.282;6.642;2023-04-15T07:11:50;23.38;;;13.98;;
23181;SDS011;11759;51.282;6.642;2023-04-15T07:14:17;24.52;;;13.93;;
23181;SDS011;11759;51.282;6.642;2023-04-15T07:16:44;25.88;;;14.80;;
23181;SDS011;11759;51.282;6.642;2023-04-15T07:19:11;22.70;;;13.65;;
23181;SDS011;11759;51.282;6.642;2023-04-15T07:21:38;23.58;;;14.15;;
23181;SDS011;11759;51.282;6.642;2023-04-15T07:24:07;22.73;;;14.68;;
23181;SDS011;11759;51.282;6.642;2023-04-15T07:26:35;23.75;;;13.55;;
23181;SDS011;11759;51.282;6.642;2023-04-15T07:29:02;22.88;;;13.63;;
23181;SDS011;11759;51.282;6.642;2023-04-15T07:31:29;23.17;;;14.35;;
23181;SDS011;11759;51.282;6.642;2023-04-15T07:33:56;22.85;;;13.63;;
23181;SDS011;11759;51.282;6.642;2023-04-15T07:36:24;20.63;;;12.85;;
23181;SDS011;11759;51.282;6.642;2023-04-15T07:39:00;22.60;;;14.18;;
23181;SDS011;11759;51.282;6.642;2023-04-15T07:41:29;22.05;;;13.82;;
23181;SDS011;11759;51.282;6.642;2023-04-15T07:43:56;21.67;;;13.23;;
23181;SDS011;11759;51.282;6.642;2023-04-15T07:46:23;16.65;;;10.57;;
23181;SDS011;11759;51.282;6.642;2023-04-15T07:48:52;15.75;;;10.38;;
23181;SDS011;11759;51.282;6.642;2023-04-15T07:51:19;17.15;;;10.63;;
23181;SDS011;11759;51.282;6.642;2023-04-15T07:53:49;13.98;;;8.65;;
23181;SDS011;11759;51.282;6.642;2023-04-15T07:56:15;14.15;;;8.73;;
23181;SDS011;11759;51.282;6.642;2023-04-15T07:58:42;13.95;;;8.63;;
23181;SDS011;11759;51.282;6.642;2023-04-15T08:01:09;15.15;;;8.60;;
23181;SDS011;11759;51.282;6.642;2023-04-15T08:03:36;12.38;;;7.45;;
23181;SDS011;11759;51.282;6.642;2023-04-15T08:06:03;12.18;;;7.40;;
23181;SDS011;11759;51.282;6.642;2023-04-15T08:08:29;11.43;;;7.38;;
23181;SDS011;11759;51.282;6.642;2023-04-15T08:10:57;10.55;;;6.50;;
23181;SDS011;11759;51.282;6.642;2023-04-15T08:13:24;11.40;;;6.28;;
23181;SDS011;11759;51.282;6.642;2023-04-15T08:15:53;8.73;;;6.10;;
23181;SDS011;11759;51.282;6.642;2023-04-15T08:18:46;16.05;;;7.22;;
23181;SDS011;11759;51.282;6.642;2023-04-15T08:21:14;13.18;;;6.47;;
23181;SDS011;11759;51.282;6.642;2023-04-15T08:23:41;12.73;;;7.15;;
23181;SDS011;11759;51.282;6.642;2023-04-15T08:26:09;15.48;;;7.65;;
23181;SDS011;11759;51.282;6.642;2023-04-15T08:28:36;15.77;;;7.93;;
23181;SDS011;11759;51.282;6.642;2023-04-15T08:31:04;15.27;;;8.95;;
23181;SDS011;11759;51.282;6.642;2023-04-15T08:33:31;15.90;;;8.38;;
23181;SDS011;11759;51.282;6.642;2023-04-15T08:35:57;15.50;;;8.88;;
23181;SDS011;11759;51.282;6.642;2023-04-15T08:38:24;15.65;;;8.85;;
23181;SDS011;11759;51.282;6.642;2023-04-15T08:40:50;12.00;;;6.50;;
23181;SDS011;11759;51.282;6.642;2023-04-15T08:43:20;10.48;;;6.47;;
23181;SDS011;11759;51.282;6.642;2023-04-15T08:45:49;13.13;;;6.18;;
23181;SDS011;11759;51.282;6.642;2023-04-15T08:48:17;15.43;;;6.25;;
23181;SDS011;11759;51.282;6.642;2023-04-15T08:50:45;8.93;;;4.72;;
23181;SDS011;11759;51.282;6.642;2023-04-15T08:53:13;11.23;;;4.57;;
23181;SDS011;11759;51.282;6.642;2023-04-15T08:55:45;9.77;;;4.93;;
23181;SDS011;11759;51.282;6.642;2023-04-15T08:58:12;9.15;;;5.03;;
23181;SDS011;11759;51.282;6.642;2023-04-15T09:00:39;12.10;;;5.35;;
23181;SDS011;11759;51.282;6.642;2023-04-15T09:03:07;14.05;;;5.20;;
23181;SDS011;11759;51.282;6.642;2023-04-15T09:05:34;10.60;;;4.53;;
23181;SDS011;11759;51.282;6.642;2023-04-15T09:08:02;13.40;;;5.50;;
23181;SDS011;11759;51.282;6.642;2023-04-15T09:10:29;8.23;;;4.70;;
23181;SDS011;11759;51.282;6.642;2023-04-15T09:12:56;5.53;;;4.00;;
23181;SDS011;11759;51.282;6.642;2023-04-15T09:15:24;9.95;;;4.40;;
23181;SDS011;11759;51.282;6.642;2023-04-15T09:17:53;7.18;;;4.03;;
23181;SDS011;11759;51.282;6.642;2023-04-15T09:20:19;9.00;;;4.45;;
23181;SDS011;11759;51.282;6.642;2023-04-15T09:22:47;8.73;;;4.85;;
23181;SDS011;11759;51.282;6.642;2023-04-15T09:27:47;7.55;;;5.00;;
23181;SDS011;11759;51.282;6.642;2023-04-15T09:30:15;6.50;;;4.03;;
23181;SDS011;11759;51.282;6.642;2023-04-15T09:32:51;8.95;;;4.78;;
23181;SDS011;11759;51.282;6.642;2023-04-15T09:35:19;11.73;;;4.82;;
23181;SDS011;11759;51.282;6.642;2023-04-15T09:37:50;8.25;;;4.45;;
23181;SDS011;11759;51.282;6.642;2023-04-15T09:40:35;8.23;;;4.03;;
23181;SDS011;11759;51.282;6.642;2023-04-15T09:43:05;6.63;;;4.32;;
23181;SDS011;11759;51.282;6.642;2023-04-15T09:45:33;6.60;;;3.92;;
23181;SDS011;11759;51.282;6.642;2023-04-15T09:48:21;8.23;;;4.25;;
23181;SDS011;11759;51.282;6.642;2023-04-15T09:50:52;6.05;;;4.13;;
23181;SDS011;11759;51.282;6.642;2023-04-15T09:53:19;6.50;;;3.92;;
23181;SDS011;11759;51.282;6.642;2023-04-15T09:55:51;8.02;;;4.60;;
23181;SDS011;11759;51.282;6.642;2023-04-15T09:58:26;7.15;;;4.03;;
23181;SDS011;11759;51.282;6.642;2023-04-15T10:00:54;7.07;;;4.47;;
23181;SDS011;11759;51.282;6.642;2023-04-15T10:03:23;6.60;;;4.25;;
23181;SDS011;11759;51.282;6.642;2023-04-15T10:05:52;7.85;;;4.68;;
23181;SDS011;11759;51.282;6.642;2023-04-15T10:08:25;8.95;;;5.43;;
23181;SDS011;11759;51.282;6.642;2023-04-15T10:10:53;7.60;;;4.82;;
23181;SDS011;11759;51.282;6.642;2023-04-15T10:13:21;7.88;;;4.70;;
23181;SDS011;11759;51.282;6.642;2023-04-15T10:15:49;7.18;;;4.45;;
23181;SDS011;11759;51.282;6.642;2023-04-15T10:18:19;9.80;;;5.30;;
23181;SDS011;11759;51.282;6.642;2023-04-15T10:20:47;7.78;;;4.93;;
23181;SDS011;11759;51.282;6.642;2023-04-15T10:23:14;8.50;;;5.30;;
23181;SDS011;11759;51.282;6.642;2023-04-15T10:25:45;9.27;;;6.07;;
23181;SDS011;11759;51.282;6.642;2023-04-15T10:28:12;9.80;;;6.65;;
23181;SDS011;11759;51.282;6.642;2023-04-15T10:30:40;9.00;;;6.47;;
23181;SDS011;11759;51.282;6.642;2023-04-15T10:33:08;10.15;;;5.90;;
23181;SDS011;11759;51.282;6.642;2023-04-15T10:35:35;10.27;;;6.88;;
23181;SDS011;11759;51.282;6.642;2023-04-15T10:38:16;10.50;;;6.88;;
23181;SDS011;11759;51.282;6.642;2023-04-15T10:41:11;11.32;;;6.00;;
23181;SDS011;11759;51.282;6.642;2023-04-15T10:43:47;8.88;;;6.18;;
23181;SDS011;11759;51.282;6.642;2023-04-15T10:46:22;9.80;;;6.30;;
23181;SDS011;11759;51.282;6.642;2023-04-15T10:48:51;8.43;;;6.43;;
23181;SDS011;11759;51.282;6.642;2023-04-15T10:51:25;13.63;;;7.30;;
23181;SDS011;11759;51.282;6.642;2023-04-15T10:53:57;10.45;;;7.05;;
23181;SDS011;11759;51.282;6.642;2023-04-15T10:56:26;10.82;;;7.00;;
23181;SDS011;11759;51.282;6.642;2023-04-15T10:58:57;9.57;;;6.60;;
23181;SDS011;11759;51.282;6.642;2023-04-15T11:07:39;6.45;;;5.32;;
23181;SDS011;11759;51.282;6.642;2023-04-15T11:12:39;5.93;;;4.13;;
23181;SDS011;11759;51.282;6.642;2023-04-15T11:18:20;13.38;;;8.95;;
23181;SDS011;11759;51.282;6.642;2023-04-15T11:20:51;10.50;;;6.43;;
23181;SDS011;11759;51.282;6.642;2023-04-15T11:23:28;6.15;;;4.68;;
23181;SDS011;11759;51.282;6.642;2023-04-15T11:26:00;6.18;;;4.32;;
23181;SDS011;11759;51.282;6.642;2023-04-15T11:28:29;11.13;;;5.40;;
23181;SDS011;11759;51.282;6.642;2023-04-15T11:30:56;7.70;;;5.00;;
23181;SDS011;11759;51.282;6.642;2023-04-15T11:33:24;8.68;;;5.55;;
23181;SDS011;11759;51.282;6.642;2023-04-15T11:35:51;8.27;;;5.82;;
23181;SDS011;11759;51.282;6.642;2023-04-15T11:38:19;8.70;;;5.03;;
23181;SDS011;11759;51.282;6.642;2023-04-15T11:40:46;8.80;;;4.45;;
23181;SDS011;11759;51.282;6.642;2023-04-15T11:43:13;6.85;;;4.20;;
23181;SDS011;11759;51.282;6.642;2023-04-15T11:46:00;6.10;;;4.60;;
23181;SDS011;11759;51.282;6.642;2023-04-15T11:48:30;8.32;;;4.63;;
23181;SDS011;11759;51.282;6.642;2023-04-15T11:51:00;7.05;;;4.95;;
23181;SDS011;11759;51.282;6.642;2023-04-15T11:53:43;6.20;;;4.53;;
23181;SDS011;11759;51.282;6.642;2023-04-15T11:56:21;4.88;;;3.85;;
23181;SDS011;11759;51.282;6.642;2023-04-15T11:58:52;5.45;;;4.15;;
23181;SDS011;11759;51.282;6.642;2023-04-15T12:01:40;6.78;;;4.60;;
23181;SDS011;11759;51.282;6.642;2023-04-15T12:04:12;8.23;;;5.20;;
23181;SDS011;11759;51.282;6.642;2023-04-15T12:06:40;9.05;;;5.22;;
23181;SDS011;11759;51.282;6.642;2023-04-15T12:11:47;7.07;;;5.30;;
23181;SDS011;11759;51.282;6.642;2023-04-15T12:14:30;7.80;;;5.38;;
23181;SDS011;11759;51.282;6.642;2023-04-15T12:16:58;6.97;;;4.43;;
23181;SDS011;11759;51.282;6.642;2023-04-15T12:19:30;7.65;;;4.75;;
23181;SDS011;11759;51.282;6.642;2023-04-15T12:22:02;7.90;;;5.18;;
23181;SDS011;11759;51.282;6.642;2023-04-15T12:24:34;7.85;;;5.40;;
23181;SDS011;11759;51.282;6.642;2023-04-15T12:27:03;8.55;;;5.25;;
23181;SDS011;11759;51.282;6.642;2023-04-15T12:29:30;7.07;;;4.82;;
23181;SDS011;11759;51.282;6.642;2023-04-15T12:31:58;7.95;;;4.93;;
23181;SDS011;11759;51.282;6.642;2023-04-15T12:34:36;7.50;;;5.05;;
23181;SDS011;11759;51.282;6.642;2023-04-15T12:37:05;8.70;;;5.00;;
23181;SDS011;11759;51.282;6.642;2023-04-15T12:39:35;7.75;;;4.60;;
23181;SDS011;11759;51.282;6.642;2023-04-15T12:42:03;6.13;;;4.53;;
23181;SDS011;11759;51.282;6.642;2023-04-15T12:44:30;6.25;;;4.40;;
23181;SDS011;11759;51.282;6.642;2023-04-15T12:46:58;7.78;;;4.00;;
23181;SDS011;11759;51.282;6.642;2023-04-15T12:49:27;6.57;;;4.57;;
23181;SDS011;11759;51.282;6.642;2023-04-15T12:51:55;6.97;;;4.50;;
23181;SDS011;11759;51.282;6.642;2023-04-15T12:54:22;11.25;;;4.63;;
23181;SDS011;11759;51.282;6.642;2023-04-15T12:56:49;7.18;;;4.47;;
23181;SDS011;11759;51.282;6.642;2023-04-15T12:59:16;7.00;;;4.53;;
23181;SDS011;11759;51.282;6.642;2023-04-15T13:01:44;8.50;;;4.32;;
23181;SDS011;11759;51.282;6.642;2023-04-15T13:04:11;7.55;;;4.70;;
23181;SDS011;11759;51.282;6.642;2023-04-15T13:06:38;7.55;;;4.05;;
23181;SDS011;11759;51.282;6.642;2023-04-15T13:09:05;7.88;;;4.20;;
23181;SDS011;11759;51.282;6.642;2023-04-15T13:11:32;7.70;;;4.75;;
23181;SDS011;11759;51.282;6.642;2023-04-15T13:14:00;9.18;;;4.95;;
23181;SDS011;11759;51.282;6.642;2023-04-15T13:16:36;8.52;;;5.50;;
23181;SDS011;11759;51.282;6.642;2023-04-15T13:19:05;9.82;;;5.28;;
23181;SDS011;11759;51.282;6.642;2023-04-15T13:21:31;9.90;;;4.97;;
23181;SDS011;11759;51.282;6.642;2023-04-15T13:24:01;10.80;;;4.80;;
23181;SDS011;11759;51.282;6.642;2023-04-15T13:26:29;8.48;;;4.82;;
23181;SDS011;11759;51.282;6.642;2023-04-15T13:28:58;7.32;;;4.47;;
23181;SDS011;11759;51.282;6.642;2023-04-15T13:31:38;7.05;;;4.35;;
23181;SDS011;11759;51.282;6.642;2023-04-15T13:34:05;7.18;;;4.78;;
23181;SDS011;11759;51.282;6.642;2023-04-15T13:36:32;10.18;;;4.38;;
23181;SDS011;11759;51.282;6.642;2023-04-15T13:38:58;7.57;;;4.45;;
23181;SDS011;11759;51.282;6.642;2023-04-15T13:41:25;7.60;;;3.53;;
23181;SDS011;11759;51.282;6.642;2023-04-15T13:43:53;9.18;;;4.43;;
23181;SDS011;11759;51.282;6.642;2023-04-15T13:46:19;5.40;;;3.55;;
23181;SDS011;11759;51.282;6.642;2023-04-15T13:48:46;10.10;;;4.20;;
23181;SDS011;11759;51.282;6.642;2023-04-15T13:51:13;7.07;;;3.75;;
23181;SDS011;11759;51.282;6.642;2023-04-15T13:53:39;6.93;;;4.25;;
23181;SDS011;11759;51.282;6.642;2023-04-15T13:56:06;6.90;;;4.10;;
23181;SDS011;11759;51.282;6.642;2023-04-15T13:58:34;5.60;;;3.75;;
23181;SDS011;11759;51.282;6.642;2023-04-15T14:01:02;6.00;;;3.70;;
23181;SDS011;11759;51.282;6.642;2023-04-15T14:03:36;4.85;;;3.20;;
23181;SDS011;11759;51.282;6.642;2023-04-15T14:06:04;8.90;;;3.80;;
23181;SDS011;11759;51.282;6.642;2023-04-15T14:08:31;7.00;;;4.10;;
23181;SDS011;11759;51.282;6.642;2023-04-15T14:10:58;6.15;;;3.63;;
23181;SDS011;11759;51.282;6.642;2023-04-15T14:13:25;8.75;;;4.00;;
23181;SDS011;11759;51.282;6.642;2023-04-15T14:15:52;6.43;;;4.20;;
23181;SDS011;11759;51.282;6.642;2023-04-15T14:18:35;11.20;;;4.28;;
23181;SDS011;11759;51.282;6.642;2023-04-15T14:21:05;9.63;;;4.13;;
23181;SDS011;11759;51.282;6.642;2023-04-15T14:23:32;7.70;;;4.00;;
23181;SDS011;11759;51.282;6.642;2023-04-15T14:25:59;7.97;;;4.15;;
23181;SDS011;11759;51.282;6.642;2023-04-15T14:28:25;8.13;;;4.35;;
23181;SDS011;11759;51.282;6.642;2023-04-15T14:30:52;11.40;;;4.90;;
23181;SDS011;11759;51.282;6.642;2023-04-15T14:33:24;9.40;;;5.40;;
23181;SDS011;11759;51.282;6.642;2023-04-15T14:36:03;7.20;;;4.57;;
23181;SDS011;11759;51.282;6.642;2023-04-15T14:38:30;12.45;;;5.25;;
23181;SDS011;11759;51.282;6.642;2023-04-15T14:40:56;14.50;;;5.70;;
23181;SDS011;11759;51.282;6.642;2023-04-15T14:43:23;9.60;;;4.97;;
23181;SDS011;11759;51.282;6.642;2023-04-15T14:45:50;13.05;;;5.15;;
23181;SDS011;11759;51.282;6.642;2023-04-15T14:48:17;10.35;;;4.53;;
23181;SDS011;11759;51.282;6.642;2023-04-15T14:50:43;9.95;;;4.53;;
23181;SDS011;11759;51.282;6.642;2023-04-15T14:53:10;7.78;;;4.78;;
23181;SDS011;11759;51.282;6.642;2023-04-15T14:55:37;7.50;;;3.88;;
23181;SDS011;11759;51.282;6.642;2023-04-15T14:58:04;9.77;;;3.78;;
23181;SDS011;11759;51.282;6.642;2023-04-15T15:00:31;6.25;;;3.30;;
23181;SDS011;11759;51.282;6.642;2023-04-15T15:02:58;7.15;;;3.65;;